sensor_id;sensor_type;location;lat;lon;timestamp;temperature;humidity
26954;DHT22;14508;50.924;11.600;2023-05-21T00:00:48;14.60;99.90
26954;DHT22;14508;50.924;11.600;2023-05-21T00:03:17;14.60;99.90
26954;DHT22;14508;50.924;11.600;2023-05-21T00:05:45;14.50;99.90
26954;DHT22;14508;50.924;11.600;2023-05-21T00:08:14;14.50;99.90
26954;DHT22;14508;50.924;11.600;2023-05-21T00:10:42;14.40;99.90
26954;DHT22;14508;50.924;11.600;2023-05-21T00:13:10;14.40;99.90
26954;DHT22;14508;50.924;11.600;2023-05-21T00:15:38;14.30;99.90
26954;DHT22;14508;50.924;11.600;2023-05-21T00:18:06;14.30;99.90
26954;DHT22;14508;50.924;11.600;2023-05-21T00:20:34;14.30;99.90
26954;DHT22;14508;50.924;11.600;2023-05-21T00:23:02;14.30;99.90
26954;DHT22;14508;50.924;11.600;2023-05-21T00:25:32;14.20;99.90
26954;DHT22;14508;50.924;11.600;2023-05-21T00:28:00;14.10;99.90
26954;DHT22;14508;50.924;11.600;2023-05-21T00:30:28;14.10;99.90
26954;DHT22;14508;50.924;11.600;2023-05-21T00:32:56;14.10;99.90
26954;DHT22;14508;50.924;11.600;2023-05-21T00:35:28;14.10;99.90
26954;DHT22;14508;50.924;11.600;2023-05-21T00:37:57;14.00;99.90
26954;DHT22;14508;50.924;11.600;2023-05-21T00:40:25;14.00;99.90
26954;DHT22;14508;50.924;11.600;2023-05-21T00:42:55;13.90;99.90
26954;DHT22;14508;50.924;11.600;2023-05-21T00:45:23;13.90;99.90
26954;DHT22;14508;50.924;11.600;2023-05-21T00:47:51;13.90;99.90
26954;DHT22;14508;50.924;11.600;2023-05-21T00:50:22;13.80;99.90
26954;DHT22;14508;50.924;11.600;2023-05-21T00:52:50;13.80;99.90
26954;DHT22;14508;50.924;11.600;2023-05-21T00:55:18;13.80;99.90
26954;DHT22;14508;50.924;11.600;2023-05-21T00:57:46;13.70;99.90
26954;DHT22;14508;50.924;11.600;2023-05-21T01:00:16;13.70;99.90
26954;DHT22;14508;50.924;11.600;2023-05-21T01:02:45;13.60;99.90
26954;DHT22;14508;50.924;11.600;2023-05-21T01:05:13;13.60;99.90
26954;DHT22;14508;50.924;11.600;2023-05-21T01:07:42;13.60;99.90
26954;DHT22;14508;50.924;11.600;2023-05-21T01:10:10;13.50;99.90
26954;DHT22;14508;50.924;11.600;2023-05-21T01:12:39;13.50;99.90
26954;DHT22;14508;50.924;11.600;2023-05-21T01:15:09;13.50;99.90
26954;DHT22;14508;50.924;11.600;2023-05-21T01:17:39;13.50;99.90
26954;DHT22;14508;50.924;11.600;2023-05-21T01:20:07;13.40;99.90
26954;DHT22;14508;50.924;11.600;2023-05-21T01:26:50;13.40;99.90
26954;DHT22;14508;50.924;11.600;2023-05-21T01:29:18;13.40;99.90
26954;DHT22;14508;50.924;11.600;2023-05-21T01:31:52;13.40;99.90
26954;DHT22;14508;50.924;11.600;2023-05-21T01:34:26;13.30;99.90
26954;DHT22;14508;50.924;11.600;2023-05-21T01:37:05;13.30;99.90
26954;DHT22;14508;50.924;11.600;2023-05-21T01:39:38;13.30;99.90
26954;DHT22;14508;50.924;11.600;2023-05-21T01:42:09;13.20;99.90
26954;DHT22;14508;50.924;11.600;2023-05-21T01:44:38;13.20;99.90
26954;DHT22;14508;50.924;11.600;2023-05-21T01:47:06;13.20;99.90
26954;DHT22;14508;50.924;11.600;2023-05-21T01:49:37;13.20;99.90
26954;DHT22;14508;50.924;11.600;2023-05-21T01:52:05;13.20;99.90
26954;DHT22;14508;50.924;11.600;2023-05-21T01:54:33;13.20;99.90
26954;DHT22;14508;50.924;11.600;2023-05-21T01:57:01;13.10;99.90
26954;DHT22;14508;50.924;11.600;2023-05-21T01:59:30;13.10;99.90
26954;DHT22;14508;50.924;11.600;2023-05-21T02:01:58;13.10;99.90
26954;DHT22;14508;50.924;11.600;2023-05-21T02:04:26;13.10;99.90
26954;DHT22;14508;50.924;11.600;2023-05-21T02:06:54;13.00;99.90
26954;DHT22;14508;50.924;11.600;2023-05-21T02:09:22;13.00;99.90
26954;DHT22;14508;50.924;11.600;2023-05-21T02:11:50;13.00;99.90
26954;DHT22;14508;50.924;11.600;2023-05-21T02:14:18;13.00;99.90
26954;DHT22;14508;50.924;11.600;2023-05-21T02:16:47;13.00;99.90
26954;DHT22;14508;50.924;11.600;2023-05-21T02:19:15;13.00;99.90
26954;DHT22;14508;50.924;11.600;2023-05-21T02:21:43;12.90;99.90
26954;DHT22;14508;50.924;11.600;2023-05-21T02:24:12;12.90;99.90
26954;DHT22;14508;50.924;11.600;2023-05-21T02:26:40;12.90;99.90
26954;DHT22;14508;50.924;11.600;2023-05-21T02:29:09;12.80;99.90
26954;DHT22;14508;50.924;11.600;2023-05-21T02:31:37;12.80;99.90
26954;DHT22;14508;50.924;11.600;2023-05-21T02:34:06;12.80;99.90
26954;DHT22;14508;50.924;11.600;2023-05-21T02:36:34;12.80;99.90
26954;DHT22;14508;50.924;11.600;2023-05-21T02:39:02;12.70;99.90
26954;DHT22;14508;50.924;11.600;2023-05-21T02:41:30;12.70;99.90
26954;DHT22;14508;50.924;11.600;2023-05-21T02:43:58;12.70;99.90
26954;DHT22;14508;50.924;11.600;2023-05-21T02:46:26;12.70;99.90
26954;DHT22;14508;50.924;11.600;2023-05-21T02:48:54;12.60;99.90
26954;DHT22;14508;50.924;11.600;2023-05-21T02:51:24;12.60;99.90
26954;DHT22;14508;50.924;11.600;2023-05-21T02:53:51;12.60;99.90
26954;DHT22;14508;50.924;11.600;2023-05-21T02:56:19;12.60;99.90
26954;DHT22;14508;50.924;11.600;2023-05-21T02:58:47;12.60;99.90
26954;DHT22;14508;50.924;11.600;2023-05-21T03:01:15;12.60;99.90
26954;DHT22;14508;50.924;11.600;2023-05-21T03:03:43;12.60;99.90
26954;DHT22;14508;50.924;11.600;2023-05-21T03:06:11;12.60;99.90
26954;DHT22;14508;50.924;11.600;2023-05-21T03:08:41;12.50;99.90
26954;DHT22;14508;50.924;11.600;2023-05-21T03:11:09;12.60;99.90
26954;DHT22;14508;50.924;11.600;2023-05-21T03:13:36;12.60;99.90
26954;DHT22;14508;50.924;11.600;2023-05-21T03:16:04;12.60;99.90
26954;DHT22;14508;50.924;11.600;2023-05-21T03:18:32;12.60;99.90
26954;DHT22;14508;50.924;11.600;2023-05-21T03:21:00;12.60;99.90
26954;DHT22;14508;50.924;11.600;2023-05-21T03:23:28;12.60;99.90
26954;DHT22;14508;50.924;11.600;2023-05-21T03:25:57;12.60;99.90
26954;DHT22;14508;50.924;11.600;2023-05-21T03:28:26;12.60;99.90
26954;DHT22;14508;50.924;11.600;2023-05-21T03:30:55;12.60;99.90
26954;DHT22;14508;50.924;11.600;2023-05-21T03:33:34;12.60;99.90
26954;DHT22;14508;50.924;11.600;2023-05-21T03:36:14;12.60;99.90
26954;DHT22;14508;50.924;11.600;2023-05-21T03:38:42;12.60;99.90
26954;DHT22;14508;50.924;11.600;2023-05-21T03:41:11;12.60;99.90
26954;DHT22;14508;50.924;11.600;2023-05-21T03:43:42;12.60;99.90
26954;DHT22;14508;50.924;11.600;2023-05-21T03:46:11;12.60;99.90
26954;DHT22;14508;50.924;11.600;2023-05-21T03:48:58;12.60;99.90
26954;DHT22;14508;50.924;11.600;2023-05-21T03:51:28;12.60;99.90
26954;DHT22;14508;50.924;11.600;2023-05-21T03:53:57;12.70;99.90
26954;DHT22;14508;50.924;11.600;2023-05-21T03:56:27;12.70;99.90
26954;DHT22;14508;50.924;11.600;2023-05-21T03:58:55;12.70;99.90
26954;DHT22;14508;50.924;11.600;2023-05-21T04:01:24;12.70;99.90
26954;DHT22;14508;50.924;11.600;2023-05-21T04:03:54;12.80;99.90
26954;DHT22;14508;50.924;11.600;2023-05-21T04:06:23;12.80;99.90
26954;DHT22;14508;50.924;11.600;2023-05-21T04:08:51;12.90;99.90
26954;DHT22;14508;50.924;11.600;2023-05-21T04:11:19;12.90;99.90
26954;DHT22;14508;50.924;11.600;2023-05-21T04:13:49;12.90;99.90
26954;DHT22;14508;50.924;11.600;2023-05-21T04:16:17;13.00;99.90
26954;DHT22;14508;50.924;11.600;2023-05-21T04:18:46;12.90;99.90
26954;DHT22;14508;50.924;11.600;2023-05-21T04:21:15;13.00;99.90
26954;DHT22;14508;50.924;11.600;2023-05-21T04:23:43;12.90;99.90
26954;DHT22;14508;50.924;11.600;2023-05-21T04:26:21;13.00;99.90
26954;DHT22;14508;50.924;11.600;2023-05-21T04:28:50;13.00;99.90
26954;DHT22;14508;50.924;11.600;2023-05-21T04:31:20;13.00;99.90
26954;DHT22;14508;50.924;11.600;2023-05-21T04:33:49;13.00;99.90
26954;DHT22;14508;50.924;11.600;2023-05-21T04:36:17;13.00;99.90
26954;DHT22;14508;50.924;11.600;2023-05-21T04:38:45;13.10;99.90
26954;DHT22;14508;50.924;11.600;2023-05-21T04:41:14;13.10;99.90
26954;DHT22;14508;50.924;11.600;2023-05-21T04:43:44;13.10;99.90
26954;DHT22;14508;50.924;11.600;2023-05-21T04:46:15;13.20;99.90
26954;DHT22;14508;50.924;11.600;2023-05-21T04:48:43;13.30;99.90
26954;DHT22;14508;50.924;11.600;2023-05-21T04:51:12;13.30;99.90
26954;DHT22;14508;50.924;11.600;2023-05-21T04:53:40;13.40;99.90
26954;DHT22;14508;50.924;11.600;2023-05-21T04:56:08;13.50;99.90
26954;DHT22;14508;50.924;11.600;2023-05-21T04:58:36;13.50;99.90
26954;DHT22;14508;50.924;11.600;2023-05-21T05:01:06;13.60;99.90
26954;DHT22;14508;50.924;11.600;2023-05-21T05:03:35;13.70;99.90
26954;DHT22;14508;50.924;11.600;2023-05-21T05:06:04;13.80;99.90
26954;DHT22;14508;50.924;11.600;2023-05-21T05:08:33;13.80;99.90
26954;DHT22;14508;50.924;11.600;2023-05-21T05:11:02;13.90;99.90
26954;DHT22;14508;50.924;11.600;2023-05-21T05:13:31;13.90;99.90
26954;DHT22;14508;50.924;11.600;2023-05-21T05:15:59;14.00;99.90
26954;DHT22;14508;50.924;11.600;2023-05-21T05:18:28;14.00;99.90
26954;DHT22;14508;50.924;11.600;2023-05-21T05:20:57;14.00;99.90
26954;DHT22;14508;50.924;11.600;2023-05-21T05:23:25;14.10;99.90
26954;DHT22;14508;50.924;11.600;2023-05-21T05:25:53;14.20;99.90
26954;DHT22;14508;50.924;11.600;2023-05-21T05:28:21;14.30;99.90
26954;DHT22;14508;50.924;11.600;2023-05-21T05:30:49;14.40;99.90
26954;DHT22;14508;50.924;11.600;2023-05-21T05:33:23;14.50;99.90
26954;DHT22;14508;50.924;11.600;2023-05-21T05:35:52;14.60;99.90
26954;DHT22;14508;50.924;11.600;2023-05-21T05:38:21;14.70;99.90
26954;DHT22;14508;50.924;11.600;2023-05-21T05:40:49;14.90;99.90
26954;DHT22;14508;50.924;11.600;2023-05-21T05:43:17;15.00;99.90
26954;DHT22;14508;50.924;11.600;2023-05-21T05:45:46;15.10;99.90
26954;DHT22;14508;50.924;11.600;2023-05-21T05:48:14;15.20;99.90
26954;DHT22;14508;50.924;11.600;2023-05-21T05:50:43;15.30;99.90
26954;DHT22;14508;50.924;11.600;2023-05-21T05:53:11;15.40;99.90
26954;DHT22;14508;50.924;11.600;2023-05-21T05:55:41;15.40;99.90
26954;DHT22;14508;50.924;11.600;2023-05-21T05:58:09;15.50;99.90
26954;DHT22;14508;50.924;11.600;2023-05-21T06:00:48;15.60;99.90
26954;DHT22;14508;50.924;11.600;2023-05-21T06:03:16;15.70;99.90
26954;DHT22;14508;50.924;11.600;2023-05-21T06:05:44;15.80;99.90
26954;DHT22;14508;50.924;11.600;2023-05-21T06:08:13;15.90;99.90
26954;DHT22;14508;50.924;11.600;2023-05-21T06:10:42;16.10;99.90
26954;DHT22;14508;50.924;11.600;2023-05-21T06:13:10;16.30;99.90
26954;DHT22;14508;50.924;11.600;2023-05-21T06:15:38;16.40;99.90
26954;DHT22;14508;50.924;11.600;2023-05-21T06:18:08;16.50;99.90
26954;DHT22;14508;50.924;11.600;2023-05-21T06:20:37;16.70;99.90
26954;DHT22;14508;50.924;11.600;2023-05-21T06:23:05;16.80;99.90
26954;DHT22;14508;50.924;11.600;2023-05-21T06:25:34;16.90;99.90
26954;DHT22;14508;50.924;11.600;2023-05-21T06:28:04;17.00;99.90
26954;DHT22;14508;50.924;11.600;2023-05-21T06:30:33;17.10;99.90
26954;DHT22;14508;50.924;11.600;2023-05-21T06:33:01;17.30;99.90
26954;DHT22;14508;50.924;11.600;2023-05-21T06:35:29;17.50;99.90
26954;DHT22;14508;50.924;11.600;2023-05-21T06:37:58;17.60;99.90
26954;DHT22;14508;50.924;11.600;2023-05-21T06:40:27;17.80;99.90
26954;DHT22;14508;50.924;11.600;2023-05-21T06:42:57;18.10;99.90
26954;DHT22;14508;50.924;11.600;2023-05-21T06:45:59;18.30;99.90
26954;DHT22;14508;50.924;11.600;2023-05-21T06:48:36;18.40;99.90
26954;DHT22;14508;50.924;11.600;2023-05-21T06:51:04;18.60;99.90
26954;DHT22;14508;50.924;11.600;2023-05-21T06:53:32;18.70;99.90
26954;DHT22;14508;50.924;11.600;2023-05-21T06:56:00;18.90;99.90
26954;DHT22;14508;50.924;11.600;2023-05-21T06:58:35;19.00;99.90
26954;DHT22;14508;50.924;11.600;2023-05-21T07:01:04;19.00;99.90
26954;DHT22;14508;50.924;11.600;2023-05-21T07:03:34;19.00;99.90
26954;DHT22;14508;50.924;11.600;2023-05-21T07:06:02;19.00;99.90
26954;DHT22;14508;50.924;11.600;2023-05-21T07:08:30;18.90;99.90
26954;DHT22;14508;50.924;11.600;2023-05-21T07:10:58;18.90;99.90
26954;DHT22;14508;50.924;11.600;2023-05-21T07:13:26;18.90;99.90
26954;DHT22;14508;50.924;11.600;2023-05-21T07:15:54;18.90;99.90
26954;DHT22;14508;50.924;11.600;2023-05-21T07:18:25;19.00;99.90
26954;DHT22;14508;50.924;11.600;2023-05-21T07:20:53;19.10;99.90
26954;DHT22;14508;50.924;11.600;2023-05-21T07:23:23;19.30;99.90
26954;DHT22;14508;50.924;11.600;2023-05-21T07:25:51;19.30;99.90
26954;DHT22;14508;50.924;11.600;2023-05-21T07:28:19;19.50;99.90
26954;DHT22;14508;50.924;11.600;2023-05-21T07:30:48;19.70;99.90
26954;DHT22;14508;50.924;11.600;2023-05-21T07:33:19;19.80;99.90
26954;DHT22;14508;50.924;11.600;2023-05-21T07:35:52;19.90;99.90
26954;DHT22;14508;50.924;11.600;2023-05-21T07:38:20;20.00;99.90
26954;DHT22;14508;50.924;11.600;2023-05-21T07:40:48;20.00;99.90
26954;DHT22;14508;50.924;11.600;2023-05-21T07:43:16;20.10;99.90
26954;DHT22;14508;50.924;11.600;2023-05-21T07:45:44;20.30;99.90
26954;DHT22;14508;50.924;11.600;2023-05-21T07:48:12;20.50;99.90
26954;DHT22;14508;50.924;11.600;2023-05-21T07:50:50;20.60;99.90
26954;DHT22;14508;50.924;11.600;2023-05-21T07:53:20;20.70;99.90
26954;DHT22;14508;50.924;11.600;2023-05-21T07:55:49;20.80;99.90
26954;DHT22;14508;50.924;11.600;2023-05-21T07:58:22;20.90;99.90
26954;DHT22;14508;50.924;11.600;2023-05-21T08:00:49;21.00;99.90
26954;DHT22;14508;50.924;11.600;2023-05-21T08:03:18;21.20;99.70
26954;DHT22;14508;50.924;11.600;2023-05-21T08:05:48;21.20;98.60
26954;DHT22;14508;50.924;11.600;2023-05-21T08:08:17;21.30;99.00
26954;DHT22;14508;50.924;11.600;2023-05-21T08:10:47;21.50;99.00
26954;DHT22;14508;50.924;11.600;2023-05-21T08:13:16;21.80;98.30
26954;DHT22;14508;50.924;11.600;2023-05-21T08:15:46;22.00;96.70
26954;DHT22;14508;50.924;11.600;2023-05-21T08:18:19;22.20;94.40
26954;DHT22;14508;50.924;11.600;2023-05-21T08:20:50;22.30;94.00
26954;DHT22;14508;50.924;11.600;2023-05-21T08:23:19;22.50;93.10
26954;DHT22;14508;50.924;11.600;2023-05-21T08:25:52;22.60;92.90
26954;DHT22;14508;50.924;11.600;2023-05-21T08:28:21;22.80;92.10
26954;DHT22;14508;50.924;11.600;2023-05-21T08:30:50;23.00;92.00
26954;DHT22;14508;50.924;11.600;2023-05-21T08:33:20;23.20;90.90
26954;DHT22;14508;50.924;11.600;2023-05-21T08:35:48;23.20;88.20
26954;DHT22;14508;50.924;11.600;2023-05-21T08:38:23;23.20;86.90
26954;DHT22;14508;50.924;11.600;2023-05-21T08:41:03;23.10;88.70
26954;DHT22;14508;50.924;11.600;2023-05-21T08:43:36;23.10;89.20
26954;DHT22;14508;50.924;11.600;2023-05-21T08:46:05;23.20;88.90
26954;DHT22;14508;50.924;11.600;2023-05-21T08:48:37;23.20;88.30
26954;DHT22;14508;50.924;11.600;2023-05-21T08:51:06;23.20;88.70
26954;DHT22;14508;50.924;11.600;2023-05-21T08:53:43;23.20;88.60
26954;DHT22;14508;50.924;11.600;2023-05-21T08:56:16;23.20;89.20
26954;DHT22;14508;50.924;11.600;2023-05-21T08:58:48;23.30;88.90
26954;DHT22;14508;50.924;11.600;2023-05-21T09:01:19;23.50;88.20
26954;DHT22;14508;50.924;11.600;2023-05-21T09:04:14;23.50;87.40
26954;DHT22;14508;50.924;11.600;2023-05-21T09:06:50;23.50;86.30
26954;DHT22;14508;50.924;11.600;2023-05-21T09:09:37;23.50;85.90
26954;DHT22;14508;50.924;11.600;2023-05-21T09:12:08;23.40;86.50
26954;DHT22;14508;50.924;11.600;2023-05-21T09:14:36;23.50;86.60
26954;DHT22;14508;50.924;11.600;2023-05-21T09:17:15;23.70;85.60
26954;DHT22;14508;50.924;11.600;2023-05-21T09:20:10;23.80;84.30
26954;DHT22;14508;50.924;11.600;2023-05-21T09:22:44;24.00;82.90
26954;DHT22;14508;50.924;11.600;2023-05-21T09:25:15;24.20;81.40
26954;DHT22;14508;50.924;11.600;2023-05-21T09:27:44;24.40;79.00
26954;DHT22;14508;50.924;11.600;2023-05-21T09:30:13;24.60;77.80
26954;DHT22;14508;50.924;11.600;2023-05-21T09:32:43;24.70;77.30
26954;DHT22;14508;50.924;11.600;2023-05-21T09:35:13;24.90;76.90
26954;DHT22;14508;50.924;11.600;2023-05-21T09:37:42;25.00;75.30
26954;DHT22;14508;50.924;11.600;2023-05-21T09:40:12;25.00;75.20
26954;DHT22;14508;50.924;11.600;2023-05-21T09:42:46;25.00;74.10
26954;DHT22;14508;50.924;11.600;2023-05-21T09:45:17;25.00;74.70
26954;DHT22;14508;50.924;11.600;2023-05-21T09:47:46;25.00;73.20
26954;DHT22;14508;50.924;11.600;2023-05-21T09:50:17;25.00;73.70
26954;DHT22;14508;50.924;11.600;2023-05-21T09:52:46;25.00;73.40
26954;DHT22;14508;50.924;11.600;2023-05-21T09:55:16;25.00;73.60
26954;DHT22;14508;50.924;11.600;2023-05-21T09:57:46;25.00;74.00
26954;DHT22;14508;50.924;11.600;2023-05-21T10:00:18;25.00;73.90
26954;DHT22;14508;50.924;11.600;2023-05-21T10:02:48;25.00;72.50
26954;DHT22;14508;50.924;11.600;2023-05-21T10:05:16;25.00;72.50
26954;DHT22;14508;50.924;11.600;2023-05-21T10:07:48;25.00;72.10
26954;DHT22;14508;50.924;11.600;2023-05-21T10:10:19;25.10;72.70
26954;DHT22;14508;50.924;11.600;2023-05-21T10:12:52;25.20;74.00
26954;DHT22;14508;50.924;11.600;2023-05-21T10:15:23;25.40;72.90
26954;DHT22;14508;50.924;11.600;2023-05-21T10:17:51;25.50;71.60
26954;DHT22;14508;50.924;11.600;2023-05-21T10:20:19;25.50;71.00
26954;DHT22;14508;50.924;11.600;2023-05-21T10:22:49;25.70;70.10
26954;DHT22;14508;50.924;11.600;2023-05-21T10:25:18;25.80;67.50
26954;DHT22;14508;50.924;11.600;2023-05-21T10:27:48;26.00;68.00
26954;DHT22;14508;50.924;11.600;2023-05-21T10:30:17;26.10;67.80
26954;DHT22;14508;50.924;11.600;2023-05-21T10:32:46;26.40;66.90
26954;DHT22;14508;50.924;11.600;2023-05-21T10:35:16;26.50;65.80
26954;DHT22;14508;50.924;11.600;2023-05-21T10:37:44;26.60;62.90
26954;DHT22;14508;50.924;11.600;2023-05-21T10:40:12;26.70;63.30
26954;DHT22;14508;50.924;11.600;2023-05-21T10:43:00;26.80;62.70
26954;DHT22;14508;50.924;11.600;2023-05-21T10:45:40;27.00;62.00
26954;DHT22;14508;50.924;11.600;2023-05-21T10:48:22;27.00;60.90
26954;DHT22;14508;50.924;11.600;2023-05-21T10:51:07;27.10;61.00
26954;DHT22;14508;50.924;11.600;2023-05-21T10:53:47;27.10;60.00
26954;DHT22;14508;50.924;11.600;2023-05-21T10:56:23;27.20;60.00
26954;DHT22;14508;50.924;11.600;2023-05-21T10:59:11;27.30;58.50
26954;DHT22;14508;50.924;11.600;2023-05-21T11:01:49;27.30;58.80
26954;DHT22;14508;50.924;11.600;2023-05-21T11:04:21;27.30;58.50
26954;DHT22;14508;50.924;11.600;2023-05-21T11:06:49;27.50;57.00
26954;DHT22;14508;50.924;11.600;2023-05-21T11:09:17;27.60;55.90
26954;DHT22;14508;50.924;11.600;2023-05-21T11:11:49;27.70;56.40
26954;DHT22;14508;50.924;11.600;2023-05-21T11:14:32;27.80;56.70
26954;DHT22;14508;50.924;11.600;2023-05-21T11:17:10;28.10;56.40
26954;DHT22;14508;50.924;11.600;2023-05-21T11:19:40;28.10;55.70
26954;DHT22;14508;50.924;11.600;2023-05-21T11:22:19;28.00;54.40
26954;DHT22;14508;50.924;11.600;2023-05-21T11:24:48;27.90;54.80
26954;DHT22;14508;50.924;11.600;2023-05-21T11:27:30;27.80;54.30
26954;DHT22;14508;50.924;11.600;2023-05-21T11:30:04;27.90;54.60
26954;DHT22;14508;50.924;11.600;2023-05-21T11:32:36;28.00;53.00
26954;DHT22;14508;50.924;11.600;2023-05-21T11:35:05;28.00;52.60
26954;DHT22;14508;50.924;11.600;2023-05-21T11:37:34;27.90;52.40
26954;DHT22;14508;50.924;11.600;2023-05-21T11:40:21;27.90;52.20
26954;DHT22;14508;50.924;11.600;2023-05-21T11:42:53;28.00;52.60
26954;DHT22;14508;50.924;11.600;2023-05-21T11:45:26;28.10;52.70
26954;DHT22;14508;50.924;11.600;2023-05-21T11:47:55;28.10;52.40
26954;DHT22;14508;50.924;11.600;2023-05-21T11:50:24;28.00;52.30
26954;DHT22;14508;50.924;11.600;2023-05-21T11:52:53;28.00;52.60
26954;DHT22;14508;50.924;11.600;2023-05-21T11:55:22;27.90;52.00
26954;DHT22;14508;50.924;11.600;2023-05-21T11:57:52;27.90;51.70
26954;DHT22;14508;50.924;11.600;2023-05-21T12:00:21;28.10;50.90
26954;DHT22;14508;50.924;11.600;2023-05-21T12:02:51;28.00;50.30
26954;DHT22;14508;50.924;11.600;2023-05-21T12:05:20;28.00;50.50
26954;DHT22;14508;50.924;11.600;2023-05-21T12:07:48;28.00;50.50
26954;DHT22;14508;50.924;11.600;2023-05-21T12:10:20;28.00;50.60
26954;DHT22;14508;50.924;11.600;2023-05-21T12:12:48;28.10;50.40
26954;DHT22;14508;50.924;11.600;2023-05-21T12:15:25;28.20;50.30
26954;DHT22;14508;50.924;11.600;2023-05-21T12:17:54;28.40;47.90
26954;DHT22;14508;50.924;11.600;2023-05-21T12:20:25;28.60;45.90
26954;DHT22;14508;50.924;11.600;2023-05-21T12:22:53;28.70;44.90
26954;DHT22;14508;50.924;11.600;2023-05-21T12:25:21;28.80;43.60
26954;DHT22;14508;50.924;11.600;2023-05-21T12:27:49;28.80;43.40
26954;DHT22;14508;50.924;11.600;2023-05-21T12:30:25;28.90;43.20
26954;DHT22;14508;50.924;11.600;2023-05-21T12:32:56;29.00;42.20
26954;DHT22;14508;50.924;11.600;2023-05-21T12:35:25;29.10;42.40
26954;DHT22;14508;50.924;11.600;2023-05-21T12:37:53;29.10;41.50
26954;DHT22;14508;50.924;11.600;2023-05-21T12:40:21;29.10;41.90
26954;DHT22;14508;50.924;11.600;2023-05-21T12:42:49;29.20;41.10
26954;DHT22;14508;50.924;11.600;2023-05-21T12:45:18;29.20;40.60
26954;DHT22;14508;50.924;11.600;2023-05-21T12:47:49;29.30;41.00
26954;DHT22;14508;50.924;11.600;2023-05-21T12:50:22;29.30;40.40
26954;DHT22;14508;50.924;11.600;2023-05-21T12:52:53;29.40;39.90
26954;DHT22;14508;50.924;11.600;2023-05-21T12:55:22;29.40;39.10
26954;DHT22;14508;50.924;11.600;2023-05-21T12:58:00;29.40;39.20
26954;DHT22;14508;50.924;11.600;2023-05-21T13:00:28;29.40;39.10
26954;DHT22;14508;50.924;11.600;2023-05-21T13:02:57;29.40;39.50
26954;DHT22;14508;50.924;11.600;2023-05-21T13:05:26;29.40;39.90
26954;DHT22;14508;50.924;11.600;2023-05-21T13:07:54;29.50;39.80
26954;DHT22;14508;50.924;11.600;2023-05-21T13:10:22;29.50;39.50
26954;DHT22;14508;50.924;11.600;2023-05-21T13:12:50;29.70;39.50
26954;DHT22;14508;50.924;11.600;2023-05-21T13:15:18;29.70;39.20
26954;DHT22;14508;50.924;11.600;2023-05-21T13:17:46;29.70;38.80
26954;DHT22;14508;50.924;11.600;2023-05-21T13:20:18;29.80;38.30
26954;DHT22;14508;50.924;11.600;2023-05-21T13:22:59;29.80;37.80
26954;DHT22;14508;50.924;11.600;2023-05-21T13:25:31;29.60;36.80
26954;DHT22;14508;50.924;11.600;2023-05-21T13:28:01;29.70;37.30
26954;DHT22;14508;50.924;11.600;2023-05-21T13:30:29;29.70;37.70
26954;DHT22;14508;50.924;11.600;2023-05-21T13:32:58;29.70;37.80
26954;DHT22;14508;50.924;11.600;2023-05-21T13:35:28;29.70;38.00
26954;DHT22;14508;50.924;11.600;2023-05-21T13:37:57;29.80;38.30
26954;DHT22;14508;50.924;11.600;2023-05-21T13:40:25;29.70;37.20
26954;DHT22;14508;50.924;11.600;2023-05-21T13:42:53;29.70;37.10
26954;DHT22;14508;50.924;11.600;2023-05-21T13:45:21;29.80;37.80
26954;DHT22;14508;50.924;11.600;2023-05-21T13:47:54;29.80;37.60
26954;DHT22;14508;50.924;11.600;2023-05-21T13:50:23;29.90;37.30
26954;DHT22;14508;50.924;11.600;2023-05-21T13:52:52;30.00;36.90
26954;DHT22;14508;50.924;11.600;2023-05-21T13:55:20;30.10;37.00
26954;DHT22;14508;50.924;11.600;2023-05-21T13:57:48;30.00;36.60
26954;DHT22;14508;50.924;11.600;2023-05-21T14:00:16;30.20;37.10
26954;DHT22;14508;50.924;11.600;2023-05-21T14:02:44;30.20;36.70
26954;DHT22;14508;50.924;11.600;2023-05-21T14:05:12;30.30;35.70
26954;DHT22;14508;50.924;11.600;2023-05-21T14:07:41;30.30;35.90
26954;DHT22;14508;50.924;11.600;2023-05-21T14:10:10;30.20;36.50
26954;DHT22;14508;50.924;11.600;2023-05-21T14:12:38;30.30;36.40
26954;DHT22;14508;50.924;11.600;2023-05-21T14:15:07;30.40;36.10
26954;DHT22;14508;50.924;11.600;2023-05-21T14:17:35;30.30;34.70
26954;DHT22;14508;50.924;11.600;2023-05-21T14:20:07;30.20;34.90
26954;DHT22;14508;50.924;11.600;2023-05-21T14:22:35;30.20;34.80
26954;DHT22;14508;50.924;11.600;2023-05-21T14:25:03;30.20;34.60
26954;DHT22;14508;50.924;11.600;2023-05-21T14:27:32;30.20;34.70
26954;DHT22;14508;50.924;11.600;2023-05-21T14:30:04;30.20;35.20
26954;DHT22;14508;50.924;11.600;2023-05-21T14:32:32;30.20;35.50
26954;DHT22;14508;50.924;11.600;2023-05-21T14:35:00;30.40;35.90
26954;DHT22;14508;50.924;11.600;2023-05-21T14:37:28;30.40;36.40
26954;DHT22;14508;50.924;11.600;2023-05-21T14:39:55;30.50;36.30
26954;DHT22;14508;50.924;11.600;2023-05-21T14:42:23;30.50;35.90
26954;DHT22;14508;50.924;11.600;2023-05-21T14:44:53;30.50;35.10
26954;DHT22;14508;50.924;11.600;2023-05-21T14:47:21;30.50;35.00
26954;DHT22;14508;50.924;11.600;2023-05-21T14:49:49;30.50;34.80
26954;DHT22;14508;50.924;11.600;2023-05-21T14:52:17;30.50;34.30
26954;DHT22;14508;50.924;11.600;2023-05-21T14:54:45;30.40;34.80
26954;DHT22;14508;50.924;11.600;2023-05-21T14:57:13;30.40;35.20
26954;DHT22;14508;50.924;11.600;2023-05-21T14:59:41;30.40;35.20
26954;DHT22;14508;50.924;11.600;2023-05-21T15:02:10;30.40;35.40
26954;DHT22;14508;50.924;11.600;2023-05-21T15:04:38;30.40;35.60
26954;DHT22;14508;50.924;11.600;2023-05-21T15:07:06;30.40;35.80
26954;DHT22;14508;50.924;11.600;2023-05-21T15:09:34;30.40;36.10
26954;DHT22;14508;50.924;11.600;2023-05-21T15:12:02;30.30;36.20
26954;DHT22;14508;50.924;11.600;2023-05-21T15:14:30;30.00;36.10
26954;DHT22;14508;50.924;11.600;2023-05-21T15:16:58;29.80;36.20
26954;DHT22;14508;50.924;11.600;2023-05-21T15:19:27;29.60;36.50
26954;DHT22;14508;50.924;11.600;2023-05-21T15:21:55;29.30;37.00
26954;DHT22;14508;50.924;11.600;2023-05-21T15:24:23;29.10;37.40
26954;DHT22;14508;50.924;11.600;2023-05-21T15:26:51;29.10;37.50
26954;DHT22;14508;50.924;11.600;2023-05-21T15:29:19;29.00;37.50
26954;DHT22;14508;50.924;11.600;2023-05-21T15:31:47;29.00;37.80
26954;DHT22;14508;50.924;11.600;2023-05-21T15:34:15;29.10;37.80
26954;DHT22;14508;50.924;11.600;2023-05-21T15:36:45;29.10;38.20